Flight Information

DEPARTURE
RIVERSIDE, CA
Elevation:
1536
Runways:
12/30 - 3061x100 - ASPH
14/32 - 13302x200 - CONC-G
ATIS:
134.75
Clearance Delivery:
121.75
Ground:
121.75
Tower:
127.65
DESTINATION
,
Elevation:
TPA:
1000 (est.)


6740.7 NM74° True-14° Var60° HDG

Flight Plan:
(click to file on line)

1. Type
2. Aircraft Identification
3. Aircraft Type / Special Equipment
4. True Airspeed
kts
5. Departure Airport
(ICAO code)
6. Arriving Airport
(ICAO code)
7. Cruising Altitude
ft
8. Alternate Airport
(ICAO code)
9. Route of Flight
10. Remarks


00:00:00 Departure ATIS: Destination ATIS:

Clearance Limit:
Route:
Altitude: Expect in minutes
Frequency:
Transponder: (7500 Hijack / 7600 Lost Comms / 7700 Emergency)


KHMT 221535Z AUTO 22005KT 10SM SCT002 05/03 A3004 RMK AO2 T0049////
Time: 2021-01-22T15:35:00Z
1611330908
Winds: 220 @ 5 kts
Visibility: 10.0 sm
Clouds (AGL): SCT 200
Temperature: 4.9 C
Dew Point: 3.0 C
Pressure: 30.041338 in Hgbr


Notes:

Data extracted from FAA Digital Chart Supplement. Effective: 0901Z Thursday, Dec 31, 2020 to 0901Z Thursday, Jan 28, 2021
Current ATIS data is provided courtisy of PilotEdge.